Time;durP1;ratioP1;P1;durP2;ratioP2;P2;SDS_P1;SDS_P2;PMS_P1;PMS_P2;Temp;Humidity;BMP_temperature;BMP_pressure;BME280_temperature;BME280_humidity;BME280_pressure;Samples;Min_cycle;Max_cycle;Signal;HPM_P1;HPM_P2
2023/11/15 00:01:16;;;;;;;11.73;2.17;;;19.10;54.80;;;;;;5055252;28;20701;-59
2023/11/15 00:03:43;;;;;;;10.80;2.25;;;19.10;54.80;;;;;;5055512;28;20192;-59
2023/11/15 00:06:12;;;;;;;11.57;2.15;;;19.10;54.80;;;;;;5054800;28;20323;-59
2023/11/15 00:08:38;;;;;;;6.43;2.17;;;19.10;54.90;;;;;;5055700;28;20301;-59
2023/11/15 00:11:06;;;;;;;6.53;2.08;;;19.10;54.80;;;;;;5055361;28;20302;-58
2023/11/15 00:13:33;;;;;;;5.05;1.88;;;19.00;54.70;;;;;;5054714;28;20799;-60
2023/11/15 00:16:00;;;;;;;9.65;2.25;;;19.10;54.80;;;;;;5054922;28;20298;-56
2023/11/15 00:18:27;;;;;;;5.75;2.28;;;19.00;54.70;;;;;;5055305;28;20215;-58
2023/11/15 00:20:54;;;;;;;7.90;2.00;;;19.00;54.70;;;;;;5054888;28;20273;-59
2023/11/15 00:23:23;;;;;;;6.30;2.08;;;19.00;54.80;;;;;;5055137;28;20274;-58
2023/11/15 00:25:50;;;;;;;8.50;1.98;;;19.00;54.70;;;;;;5055149;28;20219;-58
2023/11/15 00:28:17;;;;;;;7.10;2.15;;;19.00;54.70;;;;;;5054771;28;20192;-59
2023/11/15 00:30:44;;;;;;;9.43;2.35;;;19.00;54.80;;;;;;5055029;28;20314;-59
2023/11/15 00:33:11;;;;;;;8.75;2.05;;;19.00;54.80;;;;;;5055003;28;20198;-59
2023/11/15 00:35:38;;;;;;;8.98;2.20;;;19.00;54.70;;;;;;5054660;28;20215;-59
2023/11/15 00:38:05;;;;;;;8.68;2.03;;;19.00;54.70;;;;;;5054835;28;20188;-60
2023/11/15 00:40:34;;;;;;;10.93;2.40;;;19.00;54.70;;;;;;5054224;28;20649;-59
2023/11/15 00:43:03;;;;;;;7.82;2.05;;;19.00;54.70;;;;;;5054457;28;20246;-58
2023/11/15 00:45:30;;;;;;;11.45;2.33;;;19.00;54.70;;;;;;5054801;28;20195;-58
2023/11/15 00:47:58;;;;;;;9.68;2.17;;;19.00;54.70;;;;;;5054413;28;20203;-61
2023/11/15 00:50:25;;;;;;;9.40;2.10;;;19.00;54.70;;;;;;5054196;28;20230;-58
2023/11/15 00:52:52;;;;;;;9.15;2.00;;;19.00;54.80;;;;;;5054591;28;20283;-57
2023/11/15 00:55:19;;;;;;;8.15;2.20;;;19.00;54.80;;;;;;5054561;28;20278;-59
2023/11/15 00:57:48;;;;;;;6.65;1.88;;;19.00;54.80;;;;;;5053907;28;20767;-58
2023/11/15 01:00:23;;;;;;;12.45;2.40;;;18.90;54.70;;;;;;5054169;28;20192;-59
2023/11/15 01:02:51;;;;;;;7.22;2.03;;;18.90;54.70;;;;;;5054117;28;20199;-59
2023/11/15 01:05:19;;;;;;;8.70;2.00;;;19.00;54.70;;;;;;5054017;28;20249;-57
2023/11/15 01:07:46;;;;;;;10.70;2.17;;;18.90;54.70;;;;;;5053917;28;20234;-59
2023/11/15 01:10:13;;;;;;;7.78;2.40;;;18.90;54.70;;;;;;5054411;28;20298;-58
2023/11/15 01:12:39;;;;;;;11.30;2.15;;;19.00;54.70;;;;;;5053585;28;20715;-59
2023/11/15 01:15:11;;;;;;;6.65;2.20;;;18.90;54.70;;;;;;5053939;28;20184;-60
2023/11/15 01:17:38;;;;;;;7.63;2.03;;;18.90;54.70;;;;;;5054129;28;20211;-58
2023/11/15 01:20:07;;;;;;;9.13;2.20;;;18.90;54.70;;;;;;5053518;28;20234;-58
2023/11/15 01:22:34;;;;;;;11.30;2.03;;;18.90;54.70;;;;;;5054078;28;20212;-58
2023/11/15 01:25:01;;;;;;;7.95;2.05;;;18.90;54.70;;;;;;5053814;28;20227;-57
2023/11/15 01:27:28;;;;;;;10.75;2.03;;;18.90;54.70;;;;;;5053588;28;20251;-60
2023/11/15 01:29:54;;;;;;;9.85;2.53;;;18.90;54.70;;;;;;5053900;28;20215;-59
2023/11/15 01:32:23;;;;;;;8.43;2.08;;;18.90;54.90;;;;;;5053636;28;20222;-59
2023/11/15 01:34:50;;;;;;;8.50;1.80;;;18.90;54.70;;;;;;5053500;28;20195;-57
2023/11/15 01:37:17;;;;;;;8.85;1.63;;;18.90;54.70;;;;;;5053892;28;20303;-58
2023/11/15 01:39:44;;;;;;;5.75;1.80;;;18.90;54.60;;;;;;5053764;28;20188;-58
2023/11/15 01:42:11;;;;;;;7.40;1.80;;;18.90;54.70;;;;;;5053025;28;20226;-58
2023/11/15 01:44:39;;;;;;;8.52;2.50;;;18.80;54.60;;;;;;5053311;28;20680;-58
2023/11/15 01:47:06;;;;;;;7.15;1.73;;;18.90;54.60;;;;;;5053593;28;20247;-58
2023/11/15 01:49:34;;;;;;;8.00;2.00;;;18.90;54.70;;;;;;5053151;28;20215;-57
2023/11/15 01:52:02;;;;;;;12.90;2.30;;;18.80;54.60;;;;;;5052465;28;20705;-60
2023/11/15 01:54:30;;;;;;;5.68;2.08;;;18.80;54.60;;;;;;5053472;28;20275;-60
2023/11/15 01:56:58;;;;;;;8.05;2.05;;;18.80;54.60;;;;;;5053072;28;20592;-58
2023/11/15 01:59:25;;;;;;;9.90;2.22;;;18.80;54.60;;;;;;5053382;28;20399;-58
2023/11/15 02:01:53;;;;;;;9.63;2.40;;;18.80;54.60;;;;;;5053381;28;20629;-58
2023/11/15 02:04:20;;;;;;;6.72;1.83;;;18.80;54.60;;;;;;5052935;28;20196;-58
2023/11/15 02:06:48;;;;;;;10.57;1.85;;;18.80;54.60;;;;;;5052954;28;20233;-57
2023/11/15 02:09:15;;;;;;;7.00;2.15;;;18.80;54.60;;;;;;5053419;28;20227;-57
2023/11/15 02:11:42;;;;;;;9.93;2.17;;;18.80;54.60;;;;;;5052777;28;20225;-60
2023/11/15 02:14:10;;;;;;;11.00;2.60;;;18.80;54.50;;;;;;5053008;28;20275;-58
2023/11/15 02:16:37;;;;;;;10.05;2.67;;;18.80;54.50;;;;;;5053006;28;20219;-59
2023/11/15 02:19:04;;;;;;;8.70;2.30;;;18.80;54.50;;;;;;5052311;28;20605;-58
2023/11/15 02:21:31;;;;;;;6.97;1.63;;;18.80;54.60;;;;;;5053182;28;20246;-57
2023/11/15 02:24:00;;;;;;;10.88;2.28;;;18.80;54.60;;;;;;5052572;28;20714;-59
2023/11/15 02:26:27;;;;;;;7.20;1.90;;;18.80;54.50;;;;;;5050768;28;20219;-58
2023/11/15 02:28:54;;;;;;;7.22;1.98;;;18.80;54.50;;;;;;5052718;28;20199;-58
2023/11/15 02:31:21;;;;;;;7.80;2.13;;;18.70;54.40;;;;;;5052393;28;20608;-57
2023/11/15 02:33:48;;;;;;;10.38;2.17;;;18.80;54.50;;;;;;5052124;28;20736;-57
2023/11/15 02:36:15;;;;;;;9.30;2.35;;;18.70;54.40;;;;;;5052790;28;20570;-58
2023/11/15 02:38:42;;;;;;;8.82;1.98;;;18.80;54.50;;;;;;5052691;28;20194;-56
2023/11/15 02:41:12;;;;;;;7.13;1.83;;;18.80;54.50;;;;;;5052283;28;20223;-58
2023/11/15 02:43:39;;;;;;;7.13;1.80;;;18.70;54.40;;;;;;5052592;28;20230;-57
2023/11/15 02:46:06;;;;;;;7.75;2.28;;;18.70;55.10;;;;;;5052620;28;20247;-58
2023/11/15 02:48:34;;;;;;;7.50;1.70;;;18.70;54.40;;;;;;5052101;28;20191;-59
2023/11/15 02:51:01;;;;;;;6.65;2.05;;;18.70;54.40;;;;;;5052166;28;20876;-58
2023/11/15 02:53:28;;;;;;;11.88;2.53;;;18.70;54.40;;;;;;5052493;28;20187;-59
2023/11/15 02:55:54;;;;;;;7.13;1.92;;;18.70;54.30;;;;;;5052061;28;20221;-59
2023/11/15 02:58:23;;;;;;;7.82;1.77;;;18.70;54.30;;;;;;5052440;28;20196;-59
2023/11/15 03:00:50;;;;;;;10.68;2.45;;;18.70;54.30;;;;;;5052362;28;20219;-58
2023/11/15 03:03:17;;;;;;;5.85;2.17;;;18.70;54.30;;;;;;5051815;28;20183;-59
2023/11/15 03:05:44;;;;;;;7.63;1.95;;;18.70;54.30;;;;;;5052113;28;20230;-59
2023/11/15 03:08:11;;;;;;;9.45;1.80;;;18.70;54.30;;;;;;5051887;28;20245;-58
2023/11/15 03:10:38;;;;;;;7.75;2.03;;;18.70;54.30;;;;;;5052073;28;20233;-59
2023/11/15 03:13:05;;;;;;;6.05;2.00;;;18.70;54.30;;;;;;5051849;28;20279;-58
2023/11/15 03:15:33;;;;;;;12.57;1.98;;;18.70;54.20;;;;;;5052247;28;20227;-58
2023/11/15 03:18:01;;;;;;;10.13;1.90;;;18.70;54.20;;;;;;5051882;28;20206;-59
2023/11/15 03:20:27;;;;;;;8.23;1.85;;;18.70;54.20;;;;;;5052193;28;20184;-58
2023/11/15 03:22:54;;;;;;;8.90;2.50;;;18.70;54.20;;;;;;5052188;28;20193;-59
2023/11/15 03:25:22;;;;;;;10.40;1.75;;;18.70;54.20;;;;;;5051749;28;20192;-59
2023/11/15 03:27:48;;;;;;;9.10;2.05;;;18.60;54.10;;;;;;5051789;28;20231;-58
2023/11/15 03:30:16;;;;;;;6.25;1.85;;;18.70;54.20;;;;;;5052058;28;20219;-60
2023/11/15 03:32:45;;;;;;;9.55;2.15;;;18.70;54.20;;;;;;5051681;28;20683;-60
2023/11/15 03:35:12;;;;;;;9.02;2.08;;;18.70;54.10;;;;;;5052072;28;20278;-59
2023/11/15 03:37:41;;;;;;;7.95;2.03;;;18.60;54.10;;;;;;5052025;28;20245;-60
2023/11/15 03:40:09;;;;;;;9.95;2.17;;;18.60;54.00;;;;;;5051369;28;20192;-59
2023/11/15 03:42:36;;;;;;;8.70;2.00;;;18.60;54.00;;;;;;5051621;28;20230;-59
2023/11/15 03:45:05;;;;;;;9.15;2.20;;;18.60;54.00;;;;;;5051986;28;20191;-56
2023/11/15 03:47:32;;;;;;;5.88;1.90;;;18.60;54.10;;;;;;5051237;28;20725;-59
2023/11/15 03:50:01;;;;;;;8.48;2.08;;;18.60;54.00;;;;;;5051845;28;20302;-59
2023/11/15 03:52:27;;;;;;;5.93;1.92;;;18.60;54.00;;;;;;5052029;28;20226;-58
2023/11/15 03:54:54;;;;;;;6.78;1.92;;;18.60;54.00;;;;;;5051526;28;20183;-58
2023/11/15 03:57:21;;;;;;;9.75;2.17;;;18.60;54.10;;;;;;5051831;28;20620;-58
2023/11/15 03:59:48;;;;;;;9.48;3.22;;;18.60;54.10;;;;;;5051818;28;20203;-59
2023/11/15 04:02:16;;;;;;;6.35;1.85;;;18.60;54.00;;;;;;5051584;28;20243;-58
2023/11/15 04:04:42;;;;;;;11.02;1.70;;;18.60;54.00;;;;;;5051814;28;20215;-59
2023/11/15 04:07:11;;;;;;;10.05;2.20;;;18.60;54.10;;;;;;5051462;28;20727;-58
2023/11/15 04:09:38;;;;;;;11.40;2.53;;;18.60;54.00;;;;;;5051425;28;20286;-58
2023/11/15 04:12:06;;;;;;;8.55;2.08;;;18.60;54.00;;;;;;5051649;28;20222;-57
2023/11/15 04:14:35;;;;;;;7.15;2.08;;;18.60;54.00;;;;;;5053459;28;20238;-58
2023/11/15 04:17:01;;;;;;;10.90;2.17;;;18.60;54.00;;;;;;5054611;28;20306;-58
2023/11/15 04:19:28;;;;;;;6.75;1.88;;;18.60;54.00;;;;;;5055309;28;20740;-58
2023/11/15 04:21:55;;;;;;;7.03;1.90;;;18.60;54.00;;;;;;5055369;28;20326;-58
2023/11/15 04:24:24;;;;;;;7.45;2.20;;;18.60;54.00;;;;;;5054785;28;20249;-58
2023/11/15 04:26:50;;;;;;;6.00;1.77;;;18.50;53.90;;;;;;5054782;28;20306;-59
2023/11/15 04:29:18;;;;;;;9.10;2.47;;;18.60;54.00;;;;;;5054801;28;20680;-58
2023/11/15 04:31:45;;;;;;;9.15;2.00;;;18.50;53.90;;;;;;5054810;28;20239;-58
2023/11/15 04:34:15;;;;;;;9.77;2.20;;;18.50;53.90;;;;;;5054955;28;20215;-58
2023/11/15 04:36:42;;;;;;;9.32;2.05;;;18.50;53.90;;;;;;5054856;28;20223;-60
2023/11/15 04:39:09;;;;;;;6.43;1.65;;;18.50;53.90;;;;;;5054279;28;20194;-59
2023/11/15 04:41:38;;;;;;;6.72;1.70;;;18.50;53.90;;;;;;5054757;28;20584;-59
2023/11/15 04:44:05;;;;;;;9.15;2.22;;;18.50;53.90;;;;;;5054781;28;20275;-56
2023/11/15 04:46:34;;;;;;;10.07;1.92;;;18.50;53.90;;;;;;5054417;28;20302;-59
2023/11/15 04:49:01;;;;;;;8.85;2.53;;;18.50;53.90;;;;;;5054399;28;20207;-59
2023/11/15 04:51:28;;;;;;;7.40;2.33;;;18.50;54.60;;;;;;5054364;28;20719;-60
2023/11/15 04:53:55;;;;;;;8.40;2.05;;;18.50;53.90;;;;;;5053971;28;20184;-59
2023/11/15 04:56:22;;;;;;;8.38;1.88;;;18.50;53.90;;;;;;5054526;28;20220;-59
2023/11/15 04:58:52;;;;;;;7.25;1.90;;;18.50;53.90;;;;;;5054282;28;20658;-58
2023/11/15 05:01:19;;;;;;;8.43;1.90;;;18.50;53.90;;;;;;5054160;28;20584;-58
2023/11/15 05:03:46;;;;;;;7.45;1.80;;;18.50;53.90;;;;;;5054463;28;20196;-58
2023/11/15 05:06:14;;;;;;;7.15;1.98;;;18.50;53.90;;;;;;5053909;28;20780;-58
2023/11/15 05:08:40;;;;;;;6.53;1.70;;;18.50;53.90;;;;;;5054356;28;20195;-57
2023/11/15 05:11:07;;;;;;;5.70;1.98;;;18.50;53.90;;;;;;5054276;28;20231;-59
2023/11/15 05:13:34;;;;;;;8.32;2.70;;;18.50;53.90;;;;;;5054226;28;20215;-57
2023/11/15 05:16:03;;;;;;;9.60;2.35;;;18.50;53.90;;;;;;5053841;28;20225;-58
2023/11/15 05:18:30;;;;;;;5.75;1.80;;;18.50;53.90;;;;;;5053966;28;20191;-58
2023/11/15 05:20:58;;;;;;;8.48;1.90;;;18.50;53.90;;;;;;5054123;28;20195;-58
2023/11/15 05:23:24;;;;;;;8.00;1.80;;;18.50;53.90;;;;;;5053701;28;20680;-58
2023/11/15 05:25:51;;;;;;;6.03;1.75;;;18.50;53.90;;;;;;5053942;28;20274;-59
2023/11/15 05:28:20;;;;;;;7.85;2.10;;;18.50;53.90;;;;;;5054031;28;20188;-58
2023/11/15 05:30:47;;;;;;;7.15;2.00;;;18.50;53.90;;;;;;5053468;28;20226;-58
2023/11/15 05:33:16;;;;;;;10.40;2.10;;;18.40;53.90;;;;;;5053887;28;20282;-59
2023/11/15 05:35:43;;;;;;;6.10;2.03;;;18.40;53.90;;;;;;5053787;28;20192;-58
2023/11/15 05:38:10;;;;;;;10.32;2.65;;;18.50;54.10;;;;;;5053159;28;20556;-58
2023/11/15 05:40:37;;;;;;;6.80;2.00;;;18.50;54.20;;;;;;5053452;28;20282;-58
2023/11/15 05:43:04;;;;;;;4.78;1.83;;;18.50;54.20;;;;;;5053695;28;20302;-58
2023/11/15 05:45:31;;;;;;;9.05;1.80;;;18.50;54.10;;;;;;5053042;28;20653;-58
2023/11/15 05:47:58;;;;;;;5.90;1.58;;;18.50;54.10;;;;;;5053877;28;20265;-60
2023/11/15 05:50:26;;;;;;;6.78;1.58;;;18.60;54.10;;;;;;5053423;28;20218;-57
2023/11/15 05:52:53;;;;;;;4.68;1.65;;;18.70;54.10;;;;;;5053273;28;20311;-58
2023/11/15 05:55:20;;;;;;;3.90;1.48;;;18.70;54.00;;;;;;5053233;28;20693;-59
2023/11/15 05:57:48;;;;;;;6.47;1.88;;;18.80;53.90;;;;;;5053095;28;20569;-55
2023/11/15 06:00:18;;;;;;;4.70;1.52;;;18.80;53.80;;;;;;5053004;28;20191;-59
2023/11/15 06:02:47;;;;;;;3.30;1.52;;;18.90;53.80;;;;;;5053079;28;20215;-60
2023/11/15 06:05:14;;;;;;;4.47;1.63;;;19.00;53.70;;;;;;5053255;28;20671;-59
2023/11/15 06:07:42;;;;;;;7.55;1.70;;;19.00;53.50;;;;;;5052722;28;20322;-58
2023/11/15 06:10:10;;;;;;;7.90;1.95;;;19.10;53.50;;;;;;5053101;28;20278;-58
2023/11/15 06:12:39;;;;;;;3.85;1.67;;;19.20;53.30;;;;;;5052737;28;20893;-57
2023/11/15 06:15:08;;;;;;;4.15;1.40;;;19.20;53.30;;;;;;5052784;28;20220;-59
2023/11/15 06:17:35;;;;;;;8.02;1.58;;;19.30;53.20;;;;;;5052711;28;20273;-59
2023/11/15 06:20:03;;;;;;;8.23;1.63;;;19.30;53.10;;;;;;5052985;28;20202;-58
2023/11/15 06:22:30;;;;;;;4.53;1.67;;;19.40;53.10;;;;;;5052379;28;20261;-59
2023/11/15 06:24:58;;;;;;;6.65;1.60;;;19.40;52.90;;;;;;5052945;28;20278;-57
2023/11/15 06:27:25;;;;;;;6.82;1.60;;;19.50;52.90;;;;;;5052784;28;20285;-59
2023/11/15 06:29:52;;;;;;;4.40;1.38;;;19.50;53.40;;;;;;5052567;28;20187;-58
2023/11/15 06:32:19;;;;;;;8.27;2.25;;;19.50;52.70;;;;;;5052570;28;20235;-58
2023/11/15 06:34:46;;;;;;;5.45;1.60;;;19.50;52.70;;;;;;5052839;28;20206;-60
2023/11/15 06:37:14;;;;;;;5.72;1.70;;;19.60;52.70;;;;;;5051948;28;20216;-60
2023/11/15 06:39:42;;;;;;;5.80;1.52;;;19.60;52.60;;;;;;5052748;28;20192;-60
2023/11/15 06:42:11;;;;;;;8.07;2.00;;;19.60;52.50;;;;;;5052564;28;20223;-58
2023/11/15 06:44:38;;;;;;;6.43;1.85;;;19.60;52.50;;;;;;5052303;28;20675;-59
2023/11/15 06:47:09;;;;;;;5.97;1.50;;;19.60;52.30;;;;;;5052239;28;20700;-60
2023/11/15 06:49:36;;;;;;;5.20;1.67;;;19.70;52.50;;;;;;5052608;28;20188;-60
2023/11/15 06:52:03;;;;;;;7.65;1.75;;;19.70;52.40;;;;;;5052135;28;20235;-59
2023/11/15 06:54:30;;;;;;;6.93;2.05;;;19.70;52.20;;;;;;5052234;28;20766;-60
2023/11/15 06:56:57;;;;;;;5.43;1.60;;;19.70;52.20;;;;;;5052421;28;20279;-59
2023/11/15 06:59:26;;;;;;;5.35;1.58;;;19.70;52.20;;;;;;5052154;28;20192;-57
2023/11/15 07:01:54;;;;;;;5.05;1.65;;;19.80;52.30;;;;;;5052544;28;20219;-58
2023/11/15 07:04:22;;;;;;;7.05;1.75;;;19.80;52.30;;;;;;5052440;28;20192;-58
2023/11/15 07:06:49;;;;;;;4.65;1.58;;;19.80;52.30;;;;;;5051722;28;20262;-58
2023/11/15 07:09:16;;;;;;;7.15;1.73;;;19.80;52.20;;;;;;5052552;28;20287;-59
2023/11/15 07:11:46;;;;;;;5.25;2.00;;;19.80;52.30;;;;;;5052261;28;20393;-58
2023/11/15 07:14:14;;;;;;;4.97;1.60;;;19.80;52.10;;;;;;5051898;28;20191;-58
2023/11/15 07:16:46;;;;;;;5.25;1.70;;;19.90;52.20;;;;;;5051959;28;20219;-60
2023/11/15 07:19:14;;;;;;;5.88;1.90;;;19.90;52.10;;;;;;5051992;28;20275;-58
2023/11/15 07:21:41;;;;;;;6.18;1.90;;;19.90;52.10;;;;;;5051944;28;20219;-60
2023/11/15 07:24:09;;;;;;;7.72;1.88;;;19.90;52.00;;;;;;5052167;28;20190;-57
2023/11/15 07:26:36;;;;;;;4.50;1.52;;;19.90;52.00;;;;;;5052021;28;20298;-56
2023/11/15 07:29:04;;;;;;;7.82;1.60;;;19.90;51.90;;;;;;5051900;28;20198;-60
2023/11/15 07:31:31;;;;;;;5.82;1.75;;;19.90;51.80;;;;;;5051680;28;20289;-57
2023/11/15 07:34:01;;;;;;;5.22;1.52;;;19.90;51.80;;;;;;5052140;28;20612;-58
2023/11/15 07:36:29;;;;;;;4.68;1.60;;;20.00;51.90;;;;;;5051680;28;20298;-60
2023/11/15 07:38:57;;;;;;;5.70;1.58;;;19.90;51.80;;;;;;5055788;28;20295;-59
2023/11/15 07:41:25;;;;;;;8.18;1.70;;;19.90;51.80;;;;;;5051611;28;20258;-57
2023/11/15 07:43:54;;;;;;;6.65;1.98;;;20.00;51.80;;;;;;5058565;28;20189;-58
2023/11/15 07:46:22;;;;;;;7.07;1.90;;;20.00;51.80;;;;;;5071265;28;20221;-58
2023/11/15 07:48:50;;;;;;;9.35;1.60;;;20.00;51.80;;;;;;5071911;28;20649;-59
2023/11/15 07:51:19;;;;;;;5.13;1.63;;;20.00;51.80;;;;;;5074701;28;20273;-57
2023/11/15 07:53:49;;;;;;;6.35;2.20;;;20.00;51.80;;;;;;5052584;28;20199;-58
2023/11/15 07:56:18;;;;;;;11.50;2.05;;;20.00;51.70;;;;;;5052571;28;20201;-56
2023/11/15 07:58:46;;;;;;;6.65;1.70;;;20.00;51.80;;;;;;5058832;28;20234;-53
2023/11/15 08:01:13;;;;;;;4.57;1.40;;;19.90;51.70;;;;;;5064543;28;20299;-53
2023/11/15 08:03:41;;;;;;;7.03;1.48;;;19.90;51.60;;;;;;5065381;28;20226;-56
2023/11/15 08:06:08;;;;;;;4.13;1.63;;;19.90;51.60;;;;;;5053808;28;20239;-58
2023/11/15 08:08:37;;;;;;;5.55;1.70;;;20.00;51.80;;;;;;5062886;28;20722;-56
2023/11/15 08:11:05;;;;;;;5.85;1.65;;;19.90;51.60;;;;;;5057348;28;20281;-57
2023/11/15 08:13:32;;;;;;;4.90;1.40;;;19.90;51.70;;;;;;5056787;28;20191;-56
2023/11/15 08:16:12;;;;;;;10.68;1.90;;;19.90;51.80;;;;;;5038936;28;20198;-54
2023/11/15 08:18:50;;;;;;;5.45;2.00;;;19.90;51.80;;;;;;5072583;28;20194;-58
2023/11/15 08:21:21;;;;;;;5.03;1.45;;;19.90;51.80;;;;;;5033108;28;20203;-57
2023/11/15 08:23:53;;;;;;;5.40;1.90;;;20.00;51.90;;;;;;4974408;28;20759;-54
2023/11/15 08:26:32;;;;;;;8.68;1.95;;;20.00;51.80;;;;;;4989308;28;20228;-53
2023/11/15 08:29:11;;;;;;;6.00;1.40;;;20.00;51.80;;;;;;4955061;28;20276;-57
2023/11/15 08:31:52;;;;;;;5.25;1.70;;;20.00;51.80;;;;;;4957205;28;20312;-56
2023/11/15 08:34:29;;;;;;;6.32;1.73;;;20.10;52.10;;;;;;4995550;28;20204;-55
2023/11/15 08:37:04;;;;;;;7.57;1.45;;;20.10;52.10;;;;;;4996875;28;20225;-56
2023/11/15 08:45:34;;;;;;;14.05;2.15;;;20.30;52.30;;;;;;5025385;28;21093;-60
2023/11/15 08:48:08;;;;;;;6.20;2.20;;;20.30;52.20;;;;;;5001826;28;20639;-59
2023/11/15 08:50:49;;;;;;;7.80;2.10;;;20.40;52.20;;;;;;5050967;28;20196;-59
2023/11/15 08:53:24;;;;;;;10.55;1.75;;;20.40;52.20;;;;;;5014245;28;20237;-58
2023/11/15 08:56:02;;;;;;;4.97;1.48;;;20.40;52.10;;;;;;5073731;28;20205;-58
2023/11/15 08:58:33;;;;;;;10.40;1.75;;;20.40;52.20;;;;;;5075053;28;20209;-60
2023/11/15 09:01:09;;;;;;;9.00;1.50;;;20.40;52.10;;;;;;5088956;28;20773;-56
2023/11/15 09:03:51;;;;;;;11.20;1.90;;;20.50;52.20;;;;;;5076907;28;20306;-57
2023/11/15 09:06:18;;;;;;;9.90;1.80;;;20.50;52.10;;;;;;5070599;28;20313;-56
2023/11/15 09:11:31;;;;;;;7.20;1.50;;;20.50;51.80;;;;;;5069733;28;20234;-58
2023/11/15 09:14:01;;;;;;;7.82;1.63;;;20.50;51.70;;;;;;5070277;28;20206;-59
2023/11/15 09:16:32;;;;;;;6.43;1.35;;;20.50;51.70;;;;;;5075568;28;20209;-57
2023/11/15 09:19:10;;;;;;;5.88;1.60;;;20.50;51.80;;;;;;5030000;28;20195;-59
2023/11/15 09:21:37;;;;;;;8.00;1.80;;;20.50;52.30;;;;;;5065780;28;20723;-59
2023/11/15 09:24:05;;;;;;;6.35;1.70;;;20.60;51.80;;;;;;5077787;28;20230;-56
2023/11/15 09:26:37;;;;;;;10.18;1.50;;;20.60;51.80;;;;;;5074830;28;20195;-57
2023/11/15 09:29:19;;;;;;;10.85;1.73;;;20.60;51.80;;;;;;5077056;28;20194;-58
2023/11/15 09:31:55;;;;;;;6.47;1.70;;;20.60;51.50;;;;;;5074149;28;20253;-59
2023/11/15 09:34:26;;;;;;;11.70;1.45;;;20.70;51.50;;;;;;5087130;28;20734;-56
2023/11/15 09:36:54;;;;;;;6.00;1.15;;;20.70;51.50;;;;;;5078666;28;20210;-56
2023/11/15 09:39:29;;;;;;;5.38;1.38;;;20.70;51.50;;;;;;5038385;28;20290;-58
2023/11/15 09:41:58;;;;;;;8.10;1.73;;;20.70;51.50;;;;;;5005913;28;20218;-60
2023/11/15 09:44:31;;;;;;;13.02;2.03;;;20.70;51.50;;;;;;5083513;28;20194;-60
2023/11/15 09:46:58;;;;;;;5.72;1.98;;;20.70;51.50;;;;;;5077350;28;20309;-60
2023/11/15 09:49:26;;;;;;;11.73;1.67;;;20.70;51.50;;;;;;5078533;28;20206;-60
2023/11/15 09:51:59;;;;;;;14.95;1.90;;;20.80;51.60;;;;;;5086096;28;20325;-58
2023/11/15 09:54:26;;;;;;;17.52;1.95;;;20.80;51.60;;;;;;5071050;28;20662;-60
2023/11/15 09:57:00;;;;;;;12.40;1.92;;;20.80;51.60;;;;;;5083762;28;20297;-58
2023/11/15 09:59:30;;;;;;;8.07;1.65;;;20.80;51.60;;;;;;5076586;28;20191;-51
2023/11/15 10:01:58;;;;;;;9.15;1.52;;;20.80;51.60;;;;;;5046841;28;20226;-52
2023/11/15 10:04:27;;;;;;;6.78;1.63;;;20.80;51.50;;;;;;5065235;28;20187;-58
2023/11/15 10:06:57;;;;;;;10.95;1.80;;;20.80;51.40;;;;;;5053977;28;20238;-55
2023/11/15 10:09:36;;;;;;;6.07;1.33;;;20.80;51.40;;;;;;5060691;28;20209;-60
2023/11/15 10:12:05;;;;;;;8.35;1.85;;;20.80;51.30;;;;;;5061961;28;20904;-61
2023/11/15 10:14:35;;;;;;;8.60;1.70;;;20.80;51.20;;;;;;5057937;28;20199;-58
2023/11/15 10:17:06;;;;;;;8.68;1.50;;;20.80;51.20;;;;;;5060028;28;20227;-55
2023/11/15 10:19:34;;;;;;;6.43;1.60;;;20.90;51.30;;;;;;5057725;28;20202;-55
2023/11/15 10:22:04;;;;;;;7.45;1.50;;;20.90;51.10;;;;;;5061749;28;20318;-60
2023/11/15 10:24:31;;;;;;;11.88;1.92;;;20.90;51.20;;;;;;5068173;28;20194;-59
2023/11/15 10:26:59;;;;;;;7.93;1.70;;;20.90;51.10;;;;;;5078842;28;20206;-54
2023/11/15 10:29:27;;;;;;;4.85;1.40;;;20.80;50.90;;;;;;5068658;28;20557;-59
2023/11/15 10:32:00;;;;;;;9.80;1.52;;;20.90;51.00;;;;;;5063776;28;20263;-59
2023/11/15 10:34:31;;;;;;;4.90;1.60;;;20.80;50.80;;;;;;5059715;28;21294;-56
2023/11/15 10:37:10;;;;;;;4.90;1.30;;;20.80;50.90;;;;;;5054351;28;20247;-57
2023/11/15 10:39:43;;;;;;;8.95;1.88;;;20.80;50.90;;;;;;5067901;28;20186;-55
2023/11/15 10:42:13;;;;;;;10.43;2.22;;;20.80;50.80;;;;;;5073388;28;20205;-55
2023/11/15 10:44:41;;;;;;;5.43;1.80;;;20.80;50.90;;;;;;5075865;28;20298;-58
2023/11/15 10:47:19;;;;;;;5.85;1.55;;;20.80;50.80;;;;;;5082009;28;20263;-57
2023/11/15 10:49:52;;;;;;;6.20;1.63;;;20.80;50.70;;;;;;5066028;28;20695;-63
2023/11/15 10:52:21;;;;;;;8.02;1.38;;;20.80;50.70;;;;;;5062125;28;20230;-57
2023/11/15 10:54:49;;;;;;;6.43;1.50;;;20.80;50.70;;;;;;5054063;28;20194;-53
2023/11/15 10:57:19;;;;;;;8.40;1.67;;;20.80;50.70;;;;;;5056110;28;20220;-59
2023/11/15 10:59:48;;;;;;;5.25;1.40;;;20.80;50.50;;;;;;5067047;28;20286;-57
2023/11/15 11:02:17;;;;;;;5.30;1.70;;;20.80;50.50;;;;;;5046240;28;20198;-58
2023/11/15 11:04:46;;;;;;;6.97;1.67;;;20.90;50.40;;;;;;5069554;28;20205;-59
2023/11/15 11:07:19;;;;;;;5.57;1.40;;;20.80;50.30;;;;;;5068229;28;20572;-56
2023/11/15 11:09:55;;;;;;;7.10;1.65;;;20.80;50.30;;;;;;5075167;28;20199;-55
2023/11/15 11:12:23;;;;;;;5.15;1.40;;;20.80;50.20;;;;;;5073374;28;20536;-57
2023/11/15 11:15:31;;;;;;;4.32;1.40;;;20.80;50.20;;;;;;5073576;28;20217;-59
2023/11/15 11:18:15;;;;;;;7.05;1.52;;;20.80;50.00;;;;;;5074495;28;20300;-59
2023/11/15 11:21:01;;;;;;;5.13;1.38;;;20.80;50.10;;;;;;5075847;28;20221;-58
2023/11/15 11:23:30;;;;;;;7.85;1.27;;;20.80;49.90;;;;;;5078536;28;20209;-56
2023/11/15 11:26:36;;;;;;;4.20;1.13;;;20.80;50.00;;;;;;5083609;28;20959;-56
2023/11/15 11:29:04;;;;;;;6.43;1.52;;;20.80;49.90;;;;;;5074563;28;20234;-59
2023/11/15 11:31:33;;;;;;;4.63;1.30;;;20.80;49.90;;;;;;5075754;28;20575;-59
2023/11/15 11:34:24;;;;;;;7.10;1.33;;;20.80;50.00;;;;;;5075227;28;20750;-56
2023/11/15 11:36:53;;;;;;;4.07;1.35;;;20.80;49.70;;;;;;5078391;28;20629;-57
2023/11/15 11:39:24;;;;;;;9.43;1.70;;;20.70;49.70;;;;;;5074892;28;20234;-54
2023/11/15 11:41:51;;;;;;;6.18;1.67;;;20.80;49.70;;;;;;5076766;28;20191;-58
2023/11/15 11:44:37;;;;;;;4.97;1.35;;;20.70;49.70;;;;;;5080148;28;20225;-56
2023/11/15 11:47:06;;;;;;;5.88;1.50;;;20.80;49.70;;;;;;5074298;28;20249;-55
2023/11/15 11:49:57;;;;;;;6.00;1.42;;;20.70;49.60;;;;;;5075387;28;20263;-58
2023/11/15 11:52:30;;;;;;;4.47;1.40;;;20.70;49.50;;;;;;5077073;28;20746;-53
2023/11/15 11:54:57;;;;;;;5.10;1.50;;;20.70;49.50;;;;;;5075950;28;20221;-54
2023/11/15 11:57:25;;;;;;;3.33;1.45;;;20.70;49.60;;;;;;5070816;28;20195;-57
2023/11/15 12:00:20;;;;;;;3.92;1.35;;;20.70;49.40;;;;;;5083596;28;20668;-58
2023/11/15 12:02:49;;;;;;;5.28;1.15;;;20.70;49.40;;;;;;5078256;28;20234;-56
2023/11/15 12:05:23;;;;;;;4.97;1.40;;;20.60;49.40;;;;;;5076045;28;20191;-52
2023/11/15 12:08:00;;;;;;;4.45;1.25;;;20.60;49.40;;;;;;5069001;28;20226;-58
2023/11/15 12:10:34;;;;;;;4.32;1.10;;;20.60;49.50;;;;;;5082323;28;20191;-58
2023/11/15 12:13:03;;;;;;;4.30;1.50;;;20.60;49.40;;;;;;5071675;28;20219;-56
2023/11/15 12:15:39;;;;;;;6.10;1.83;;;20.60;49.40;;;;;;5075847;28;20941;-56
2023/11/15 12:18:23;;;;;;;6.30;1.70;;;20.60;50.00;;;;;;5076141;28;20214;-54
2023/11/15 12:20:52;;;;;;;4.53;1.20;;;20.60;49.30;;;;;;5041445;28;20191;-58
2023/11/15 12:23:32;;;;;;;3.97;1.30;;;20.70;49.40;;;;;;5086377;28;20746;-57
2023/11/15 12:26:32;;;;;;;5.80;1.77;;;20.60;49.40;;;;;;5072783;28;20191;-53
2023/11/15 12:29:16;;;;;;;3.22;1.15;;;20.60;49.20;;;;;;5064415;28;20220;-57
2023/11/15 12:31:49;;;;;;;6.10;2.10;;;20.60;49.40;;;;;;5077039;28;20621;-58
2023/11/15 12:34:17;;;;;;;5.78;1.50;;;20.60;49.30;;;;;;5072605;28;20222;-57
2023/11/15 12:36:50;;;;;;;5.95;1.50;;;20.60;49.30;;;;;;5082323;28;20198;-55
2023/11/15 12:39:21;;;;;;;7.97;1.38;;;20.50;49.10;;;;;;5083413;28;20767;-54
2023/11/15 12:41:50;;;;;;;3.88;1.40;;;20.60;49.20;;;;;;5079663;28;20182;-58
2023/11/15 12:44:26;;;;;;;4.47;1.48;;;20.60;49.20;;;;;;5076304;28;20271;-53
2023/11/15 12:46:57;;;;;;;7.25;1.88;;;20.60;49.20;;;;;;5087078;28;20185;-55
2023/11/15 12:49:27;;;;;;;5.47;1.52;;;20.60;49.20;;;;;;5076180;28;20221;-57
2023/11/15 12:54:52;;;;;;;3.80;1.45;;;20.60;49.20;;;;;;5055817;28;20226;-54
2023/11/15 12:57:24;;;;;;;3.70;1.45;;;20.60;49.30;;;;;;5071336;28;20193;-56
2023/11/15 12:59:52;;;;;;;5.95;1.73;;;20.60;49.30;;;;;;5072117;28;20683;-60
2023/11/15 13:02:25;;;;;;;6.78;1.70;;;20.60;49.20;;;;;;5077538;28;20186;-58
2023/11/15 13:04:54;;;;;;;6.32;1.55;;;20.50;49.20;;;;;;5050700;28;20198;-59
2023/11/15 13:07:22;;;;;;;5.65;2.00;;;20.50;49.20;;;;;;5060713;28;20228;-56
2023/11/15 13:09:50;;;;;;;12.30;1.60;;;20.50;49.20;;;;;;5067475;28;20203;-58